sensor_id;sensor_type;location;lat;lon;timestamp;pressure;altitude;pressure_sealevel;temperature;humidity
49825;BME280;35714;55.708;37.478;2023-07-30T00:02:18;98448.31;;;15.02;79.21
49825;BME280;35714;55.708;37.478;2023-07-30T00:04:44;98443.66;;;15.02;79.37
49825;BME280;35714;55.708;37.478;2023-07-30T00:07:11;98446.44;;;14.97;79.49
49825;BME280;35714;55.708;37.478;2023-07-30T00:09:37;98452.94;;;15.01;79.77
49825;BME280;35714;55.708;37.478;2023-07-30T00:12:05;98449.97;;;14.97;79.63
49825;BME280;35714;55.708;37.478;2023-07-30T00:14:30;98451.31;;;15.00;79.85
49825;BME280;35714;55.708;37.478;2023-07-30T00:16:56;98445.03;;;15.00;79.35
49825;BME280;35714;55.708;37.478;2023-07-30T00:19:22;98448.06;;;14.98;79.65
49825;BME280;35714;55.708;37.478;2023-07-30T00:21:48;98440.19;;;14.96;80.00
49825;BME280;35714;55.708;37.478;2023-07-30T00:24:13;98448.66;;;14.95;79.43
49825;BME280;35714;55.708;37.478;2023-07-30T00:26:39;98449.75;;;14.94;79.67
49825;BME280;35714;55.708;37.478;2023-07-30T00:29:05;98438.31;;;14.92;80.00
49825;BME280;35714;55.708;37.478;2023-07-30T00:31:31;98444.28;;;14.94;79.93
49825;BME280;35714;55.708;37.478;2023-07-30T00:33:58;98448.94;;;14.93;79.53
49825;BME280;35714;55.708;37.478;2023-07-30T00:36:23;98440.50;;;14.90;80.02
49825;BME280;35714;55.708;37.478;2023-07-30T00:38:49;98439.94;;;14.93;79.87
49825;BME280;35714;55.708;37.478;2023-07-30T00:41:15;98445.38;;;14.93;79.64
49825;BME280;35714;55.708;37.478;2023-07-30T00:43:41;98445.97;;;14.90;79.45
49825;BME280;35714;55.708;37.478;2023-07-30T00:46:08;98445.97;;;14.90;79.41
49825;BME280;35714;55.708;37.478;2023-07-30T00:48:34;98442.72;;;14.88;79.96
49825;BME280;35714;55.708;37.478;2023-07-30T00:51:00;98438.88;;;14.89;79.51
49825;BME280;35714;55.708;37.478;2023-07-30T00:53:27;98433.16;;;14.85;79.71
49825;BME280;35714;55.708;37.478;2023-07-30T00:55:53;98430.16;;;14.87;79.78
49825;BME280;35714;55.708;37.478;2023-07-30T00:58:23;98432.59;;;14.88;79.69
49825;BME280;35714;55.708;37.478;2023-07-30T01:00:51;98426.91;;;14.85;79.79
49825;BME280;35714;55.708;37.478;2023-07-30T01:03:17;98427.97;;;14.89;80.08
49825;BME280;35714;55.708;37.478;2023-07-30T01:05:44;98434.22;;;14.89;79.67
49825;BME280;35714;55.708;37.478;2023-07-30T01:08:10;98424.69;;;14.87;79.71
49825;BME280;35714;55.708;37.478;2023-07-30T01:10:38;98425.53;;;14.87;79.68
49825;BME280;35714;55.708;37.478;2023-07-30T01:13:07;98425.81;;;14.86;79.89
49825;BME280;35714;55.708;37.478;2023-07-30T01:15:34;98420.94;;;14.83;79.94
49825;BME280;35714;55.708;37.478;2023-07-30T01:18:00;98429.69;;;14.79;79.41
49825;BME280;35714;55.708;37.478;2023-07-30T01:20:30;98428.06;;;14.78;79.49
49825;BME280;35714;55.708;37.478;2023-07-30T01:22:56;98430.78;;;14.78;79.29
49825;BME280;35714;55.708;37.478;2023-07-30T01:25:23;98400.13;;;14.57;79.34
49825;BME280;35714;55.708;37.478;2023-07-30T01:27:54;98412.88;;;14.67;79.84
49825;BME280;35714;55.708;37.478;2023-07-30T01:30:29;98417.47;;;14.72;80.03
49825;BME280;35714;55.708;37.478;2023-07-30T01:32:58;98411.25;;;14.66;79.89
49825;BME280;35714;55.708;37.478;2023-07-30T01:35:28;98418.84;;;14.69;79.95
49825;BME280;35714;55.708;37.478;2023-07-30T01:37:54;98416.19;;;14.64;79.48
49825;BME280;35714;55.708;37.478;2023-07-30T01:40:21;98418.41;;;14.62;79.71
49825;BME280;35714;55.708;37.478;2023-07-30T01:42:49;98423.84;;;14.62;79.67
49825;BME280;35714;55.708;37.478;2023-07-30T01:45:17;98420.56;;;14.60;79.90
49825;BME280;35714;55.708;37.478;2023-07-30T01:47:43;98430.66;;;14.59;79.84
49825;BME280;35714;55.708;37.478;2023-07-30T01:50:09;98428.22;;;14.58;79.96
49825;BME280;35714;55.708;37.478;2023-07-30T01:52:34;98426.56;;;14.57;79.59
49825;BME280;35714;55.708;37.478;2023-07-30T01:55:00;98427.69;;;14.56;79.92
49825;BME280;35714;55.708;37.478;2023-07-30T01:57:27;98436.69;;;14.56;79.85
49825;BME280;35714;55.708;37.478;2023-07-30T01:59:52;98428.53;;;14.51;79.94
49825;BME280;35714;55.708;37.478;2023-07-30T02:02:18;98433.16;;;14.56;79.92
49825;BME280;35714;55.708;37.478;2023-07-30T02:04:44;98436.38;;;14.58;80.15
49825;BME280;35714;55.708;37.478;2023-07-30T02:07:10;98433.94;;;14.61;80.21
49825;BME280;35714;55.708;37.478;2023-07-30T02:09:35;98426.88;;;14.60;79.85
49825;BME280;35714;55.708;37.478;2023-07-30T02:12:01;98435.28;;;14.64;79.61
49825;BME280;35714;55.708;37.478;2023-07-30T02:14:28;98435.81;;;14.66;79.88
49825;BME280;35714;55.708;37.478;2023-07-30T02:17:01;98449.69;;;14.70;79.80
49825;BME280;35714;55.708;37.478;2023-07-30T02:19:27;98442.56;;;14.74;79.45
49825;BME280;35714;55.708;37.478;2023-07-30T02:21:52;98445.00;;;14.75;79.41
49825;BME280;35714;55.708;37.478;2023-07-30T02:24:18;98454.53;;;14.78;79.49
49825;BME280;35714;55.708;37.478;2023-07-30T02:26:44;98446.06;;;14.79;79.31
49825;BME280;35714;55.708;37.478;2023-07-30T02:29:10;98453.13;;;14.80;79.20
49825;BME280;35714;55.708;37.478;2023-07-30T02:31:37;98456.69;;;14.81;79.29
49825;BME280;35714;55.708;37.478;2023-07-30T02:34:02;98444.94;;;14.80;78.97
49825;BME280;35714;55.708;37.478;2023-07-30T02:36:29;98454.19;;;14.85;79.11
49825;BME280;35714;55.708;37.478;2023-07-30T02:38:55;98455.84;;;14.86;78.55
49825;BME280;35714;55.708;37.478;2023-07-30T02:41:20;98452.56;;;14.84;78.46
49825;BME280;35714;55.708;37.478;2023-07-30T02:43:46;98447.38;;;14.87;78.53
49825;BME280;35714;55.708;37.478;2023-07-30T02:46:12;98460.72;;;14.89;78.27
49825;BME280;35714;55.708;37.478;2023-07-30T02:48:37;98450.13;;;14.82;78.37
49825;BME280;35714;55.708;37.478;2023-07-30T02:51:03;98451.19;;;14.86;78.40
49825;BME280;35714;55.708;37.478;2023-07-30T02:53:29;98463.97;;;14.91;77.99
49825;BME280;35714;55.708;37.478;2023-07-30T02:55:55;98467.22;;;14.93;78.24
49825;BME280;35714;55.708;37.478;2023-07-30T02:58:20;98460.16;;;14.92;77.99
49825;BME280;35714;55.708;37.478;2023-07-30T03:00:46;98468.28;;;14.97;78.25
49825;BME280;35714;55.708;37.478;2023-07-30T03:03:12;98472.94;;;14.96;77.69
49825;BME280;35714;55.708;37.478;2023-07-30T03:05:41;98475.34;;;14.98;78.13
49825;BME280;35714;55.708;37.478;2023-07-30T03:08:07;98468.50;;;15.01;77.78
49825;BME280;35714;55.708;37.478;2023-07-30T03:10:33;98468.75;;;15.04;77.78
49825;BME280;35714;55.708;37.478;2023-07-30T03:12:59;98475.50;;;15.12;77.16
49825;BME280;35714;55.708;37.478;2023-07-30T03:15:24;98476.56;;;15.16;76.87
49825;BME280;35714;55.708;37.478;2023-07-30T03:17:52;98463.69;;;15.22;77.09
49825;BME280;35714;55.708;37.478;2023-07-30T03:20:17;98482.16;;;15.30;76.47
49825;BME280;35714;55.708;37.478;2023-07-30T03:22:43;98479.38;;;15.35;76.82
49825;BME280;35714;55.708;37.478;2023-07-30T03:25:09;98472.16;;;15.44;76.51
49825;BME280;35714;55.708;37.478;2023-07-30T03:27:34;98476.47;;;15.50;76.18
49825;BME280;35714;55.708;37.478;2023-07-30T03:30:00;98474.75;;;15.55;75.91
49825;BME280;35714;55.708;37.478;2023-07-30T03:32:26;98476.81;;;15.68;75.70
49825;BME280;35714;55.708;37.478;2023-07-30T03:34:51;98488.69;;;15.82;75.00
49825;BME280;35714;55.708;37.478;2023-07-30T03:37:19;98478.81;;;15.86;74.52
49825;BME280;35714;55.708;37.478;2023-07-30T03:39:44;98479.25;;;15.94;74.26
49825;BME280;35714;55.708;37.478;2023-07-30T03:42:10;98475.88;;;16.02;74.13
49825;BME280;35714;55.708;37.478;2023-07-30T03:44:36;98478.75;;;16.11;73.65
49825;BME280;35714;55.708;37.478;2023-07-30T03:47:01;98488.44;;;16.22;72.85
49825;BME280;35714;55.708;37.478;2023-07-30T03:49:27;98484.88;;;16.21;72.54
49825;BME280;35714;55.708;37.478;2023-07-30T03:51:54;98497.91;;;16.30;72.45
49825;BME280;35714;55.708;37.478;2023-07-30T03:54:19;98495.09;;;16.35;72.45
49825;BME280;35714;55.708;37.478;2023-07-30T03:56:45;98488.38;;;16.46;72.38
49825;BME280;35714;55.708;37.478;2023-07-30T03:59:11;98501.28;;;16.59;72.12
49825;BME280;35714;55.708;37.478;2023-07-30T04:01:36;98501.06;;;16.75;71.85
49825;BME280;35714;55.708;37.478;2023-07-30T04:04:02;98493.72;;;16.89;71.48
49825;BME280;35714;55.708;37.478;2023-07-30T04:06:28;98497.09;;;17.00;70.83
49825;BME280;35714;55.708;37.478;2023-07-30T04:08:54;98501.81;;;17.13;70.74
49825;BME280;35714;55.708;37.478;2023-07-30T04:11:20;98505.69;;;17.26;70.42
49825;BME280;35714;55.708;37.478;2023-07-30T04:13:46;98502.38;;;17.43;70.24
49825;BME280;35714;55.708;37.478;2023-07-30T04:16:12;98494.13;;;17.57;69.21
49825;BME280;35714;55.708;37.478;2023-07-30T04:18:38;98501.56;;;17.71;68.25
49825;BME280;35714;55.708;37.478;2023-07-30T04:21:03;98495.56;;;17.82;68.68
49825;BME280;35714;55.708;37.478;2023-07-30T04:23:29;98507.06;;;17.98;68.23
49825;BME280;35714;55.708;37.478;2023-07-30T04:25:55;98507.25;;;18.16;68.17
49825;BME280;35714;55.708;37.478;2023-07-30T04:28:20;98507.00;;;18.26;67.19
49825;BME280;35714;55.708;37.478;2023-07-30T04:30:46;98522.13;;;18.37;67.29
49825;BME280;35714;55.708;37.478;2023-07-30T04:33:15;98499.25;;;18.42;66.36
49825;BME280;35714;55.708;37.478;2023-07-30T04:35:41;98511.41;;;18.50;65.95
49825;BME280;35714;55.708;37.478;2023-07-30T04:38:07;98509.19;;;18.52;65.45
49825;BME280;35714;55.708;37.478;2023-07-30T04:40:33;98513.41;;;18.58;65.26
49825;BME280;35714;55.708;37.478;2023-07-30T04:42:59;98519.91;;;18.62;64.92
49825;BME280;35714;55.708;37.478;2023-07-30T04:45:25;98518.06;;;18.71;65.20
49825;BME280;35714;55.708;37.478;2023-07-30T04:47:51;98521.69;;;18.81;64.58
49825;BME280;35714;55.708;37.478;2023-07-30T04:50:17;98523.72;;;18.89;64.34
49825;BME280;35714;55.708;37.478;2023-07-30T04:52:43;98523.78;;;18.98;64.48
49825;BME280;35714;55.708;37.478;2023-07-30T04:55:09;98524.66;;;19.07;63.89
49825;BME280;35714;55.708;37.478;2023-07-30T04:57:34;98524.22;;;19.14;63.31
49825;BME280;35714;55.708;37.478;2023-07-30T05:00:01;98527.63;;;19.19;63.13
49825;BME280;35714;55.708;37.478;2023-07-30T05:02:31;98523.44;;;19.22;62.80
49825;BME280;35714;55.708;37.478;2023-07-30T05:04:56;98533.94;;;19.20;62.86
49825;BME280;35714;55.708;37.478;2023-07-30T05:07:22;98534.44;;;19.22;63.04
49825;BME280;35714;55.708;37.478;2023-07-30T05:09:48;98538.81;;;19.23;63.09
49825;BME280;35714;55.708;37.478;2023-07-30T05:12:13;98534.94;;;19.24;63.21
49825;BME280;35714;55.708;37.478;2023-07-30T05:14:39;98537.19;;;19.22;63.48
49825;BME280;35714;55.708;37.478;2023-07-30T05:17:05;98526.97;;;19.14;63.35
49825;BME280;35714;55.708;37.478;2023-07-30T05:19:30;98551.41;;;19.24;63.69
49825;BME280;35714;55.708;37.478;2023-07-30T05:21:58;98541.25;;;19.24;63.21
49825;BME280;35714;55.708;37.478;2023-07-30T05:24:25;98547.72;;;19.28;63.66
49825;BME280;35714;55.708;37.478;2023-07-30T05:26:50;98550.78;;;19.27;64.02
49825;BME280;35714;55.708;37.478;2023-07-30T05:29:16;98552.72;;;19.26;63.61
49825;BME280;35714;55.708;37.478;2023-07-30T05:31:42;98546.13;;;19.27;63.89
49825;BME280;35714;55.708;37.478;2023-07-30T05:34:08;98548.56;;;19.29;63.86
49825;BME280;35714;55.708;37.478;2023-07-30T05:36:33;98550.00;;;19.26;64.07
49825;BME280;35714;55.708;37.478;2023-07-30T05:38:59;98557.91;;;19.28;63.68
49825;BME280;35714;55.708;37.478;2023-07-30T05:41:25;98553.03;;;19.25;63.97
49825;BME280;35714;55.708;37.478;2023-07-30T05:43:50;98545.28;;;19.27;63.63
49825;BME280;35714;55.708;37.478;2023-07-30T05:46:16;98556.59;;;19.25;63.84
49825;BME280;35714;55.708;37.478;2023-07-30T05:48:42;98545.75;;;19.20;63.80
49825;BME280;35714;55.708;37.478;2023-07-30T05:51:07;98557.69;;;19.16;64.23
49825;BME280;35714;55.708;37.478;2023-07-30T05:53:33;98551.88;;;19.17;63.79
49825;BME280;35714;55.708;37.478;2023-07-30T05:55:59;98540.69;;;19.14;63.92
49825;BME280;35714;55.708;37.478;2023-07-30T05:58:24;98555.16;;;19.28;64.00
49825;BME280;35714;55.708;37.478;2023-07-30T06:00:50;98547.66;;;19.42;63.44
49825;BME280;35714;55.708;37.478;2023-07-30T06:03:16;98544.81;;;19.56;63.44
49825;BME280;35714;55.708;37.478;2023-07-30T06:05:44;98546.47;;;19.66;63.03
49825;BME280;35714;55.708;37.478;2023-07-30T06:08:10;98547.31;;;19.75;62.60
49825;BME280;35714;55.708;37.478;2023-07-30T06:10:38;98552.44;;;19.91;62.71
49825;BME280;35714;55.708;37.478;2023-07-30T06:13:05;98547.13;;;20.03;62.17
49825;BME280;35714;55.708;37.478;2023-07-30T06:15:32;98550.09;;;20.15;62.20
49825;BME280;35714;55.708;37.478;2023-07-30T06:17:58;98542.66;;;20.33;61.95
49825;BME280;35714;55.708;37.478;2023-07-30T06:20:24;98539.59;;;20.52;60.97
49825;BME280;35714;55.708;37.478;2023-07-30T06:22:49;98529.88;;;20.64;60.29
49825;BME280;35714;55.708;37.478;2023-07-30T06:25:15;98533.19;;;20.66;59.65
49825;BME280;35714;55.708;37.478;2023-07-30T06:27:41;98538.34;;;20.76;59.27
49825;BME280;35714;55.708;37.478;2023-07-30T06:30:07;98526.03;;;20.82;58.25
49825;BME280;35714;55.708;37.478;2023-07-30T06:32:32;98530.72;;;20.99;57.96
49825;BME280;35714;55.708;37.478;2023-07-30T06:34:58;98529.53;;;21.26;57.61
49825;BME280;35714;55.708;37.478;2023-07-30T06:37:24;98526.59;;;21.49;57.58
49825;BME280;35714;55.708;37.478;2023-07-30T06:39:50;98514.81;;;21.70;57.09
49825;BME280;35714;55.708;37.478;2023-07-30T06:42:15;98520.53;;;21.94;56.40
49825;BME280;35714;55.708;37.478;2023-07-30T06:44:41;98525.97;;;22.12;55.04
49825;BME280;35714;55.708;37.478;2023-07-30T06:47:07;98511.31;;;22.20;53.31
49825;BME280;35714;55.708;37.478;2023-07-30T06:49:32;98520.47;;;22.42;52.03
49825;BME280;35714;55.708;37.478;2023-07-30T06:52:00;98511.22;;;22.59;52.86
49825;BME280;35714;55.708;37.478;2023-07-30T06:54:26;98506.59;;;22.84;52.73
49825;BME280;35714;55.708;37.478;2023-07-30T06:56:51;98515.19;;;23.24;52.14
49825;BME280;35714;55.708;37.478;2023-07-30T06:59:17;98501.66;;;23.69;49.54
49825;BME280;35714;55.708;37.478;2023-07-30T07:01:43;98512.41;;;24.07;47.59
49825;BME280;35714;55.708;37.478;2023-07-30T07:04:08;98509.91;;;24.43;47.75
49825;BME280;35714;55.708;37.478;2023-07-30T07:06:34;98506.25;;;24.92;47.67
49825;BME280;35714;55.708;37.478;2023-07-30T07:09:00;98512.34;;;25.57;46.86
49825;BME280;35714;55.708;37.478;2023-07-30T07:11:26;98510.81;;;26.24;45.94
49825;BME280;35714;55.708;37.478;2023-07-30T07:13:52;98509.28;;;26.81;43.70
49825;BME280;35714;55.708;37.478;2023-07-30T07:16:17;98500.81;;;27.36;41.85
49825;BME280;35714;55.708;37.478;2023-07-30T07:18:44;98501.00;;;27.70;40.71
49825;BME280;35714;55.708;37.478;2023-07-30T07:21:10;98507.47;;;28.01;40.47
49825;BME280;35714;55.708;37.478;2023-07-30T07:23:36;98523.56;;;28.12;40.48
49825;BME280;35714;55.708;37.478;2023-07-30T07:26:01;98508.09;;;28.44;38.16
49825;BME280;35714;55.708;37.478;2023-07-30T07:28:27;98513.94;;;28.62;36.46
49825;BME280;35714;55.708;37.478;2023-07-30T07:30:54;98515.53;;;28.60;35.09
49825;BME280;35714;55.708;37.478;2023-07-30T07:33:20;98510.66;;;28.57;34.54
49825;BME280;35714;55.708;37.478;2023-07-30T07:35:46;98510.00;;;28.37;35.76
49825;BME280;35714;55.708;37.478;2023-07-30T07:38:11;98505.44;;;28.52;36.01
49825;BME280;35714;55.708;37.478;2023-07-30T07:40:38;98514.84;;;28.70;36.35
49825;BME280;35714;55.708;37.478;2023-07-30T07:43:08;98514.84;;;29.04;36.49
49825;BME280;35714;55.708;37.478;2023-07-30T07:45:34;98512.22;;;29.56;33.97
49825;BME280;35714;55.708;37.478;2023-07-30T07:48:00;98508.25;;;30.05;34.64
49825;BME280;35714;55.708;37.478;2023-07-30T07:50:26;98503.34;;;30.47;33.70
49825;BME280;35714;55.708;37.478;2023-07-30T07:52:52;98509.59;;;31.00;32.85
49825;BME280;35714;55.708;37.478;2023-07-30T07:55:17;98512.03;;;31.12;30.25
49825;BME280;35714;55.708;37.478;2023-07-30T07:57:43;98498.84;;;31.16;30.38
49825;BME280;35714;55.708;37.478;2023-07-30T08:00:09;98512.81;;;31.05;29.99
49825;BME280;35714;55.708;37.478;2023-07-30T08:02:41;98510.81;;;30.99;30.39
49825;BME280;35714;55.708;37.478;2023-07-30T08:05:07;98510.41;;;31.07;29.98
49825;BME280;35714;55.708;37.478;2023-07-30T08:07:33;98502.84;;;31.33;28.90
49825;BME280;35714;55.708;37.478;2023-07-30T08:09:58;98500.94;;;31.55;29.63
49825;BME280;35714;55.708;37.478;2023-07-30T08:12:24;98507.75;;;32.12;30.10
49825;BME280;35714;55.708;37.478;2023-07-30T08:14:50;98510.84;;;32.64;27.53
49825;BME280;35714;55.708;37.478;2023-07-30T08:17:18;98513.00;;;33.20;27.61
49825;BME280;35714;55.708;37.478;2023-07-30T08:19:44;98505.44;;;33.73;27.08
49825;BME280;35714;55.708;37.478;2023-07-30T08:22:09;98510.53;;;33.89;25.37
49825;BME280;35714;55.708;37.478;2023-07-30T08:24:35;98505.03;;;33.74;26.56
49825;BME280;35714;55.708;37.478;2023-07-30T08:27:01;98510.41;;;34.03;26.54
49825;BME280;35714;55.708;37.478;2023-07-30T08:29:26;98514.03;;;34.45;26.45
49825;BME280;35714;55.708;37.478;2023-07-30T08:31:52;98521.09;;;34.61;25.86
49825;BME280;35714;55.708;37.478;2023-07-30T08:34:17;98523.56;;;33.65;24.55
49825;BME280;35714;55.708;37.478;2023-07-30T08:36:43;98523.31;;;32.42;25.82
49825;BME280;35714;55.708;37.478;2023-07-30T08:39:09;98522.56;;;32.12;27.24
49825;BME280;35714;55.708;37.478;2023-07-30T08:41:35;98514.53;;;31.96;28.51
49825;BME280;35714;55.708;37.478;2023-07-30T08:44:01;98527.78;;;32.14;29.09
49825;BME280;35714;55.708;37.478;2023-07-30T08:46:27;98515.88;;;33.05;28.93
49825;BME280;35714;55.708;37.478;2023-07-30T08:48:53;98517.72;;;33.93;27.50
49825;BME280;35714;55.708;37.478;2023-07-30T08:51:21;98513.72;;;33.94;27.01
49825;BME280;35714;55.708;37.478;2023-07-30T08:53:47;98515.88;;;33.05;27.54
49825;BME280;35714;55.708;37.478;2023-07-30T08:56:13;98517.72;;;32.02;28.92
49825;BME280;35714;55.708;37.478;2023-07-30T08:58:39;98525.22;;;31.11;29.58
49825;BME280;35714;55.708;37.478;2023-07-30T09:01:09;98528.66;;;30.80;29.77
49825;BME280;35714;55.708;37.478;2023-07-30T09:03:39;98516.69;;;30.83;29.60
49825;BME280;35714;55.708;37.478;2023-07-30T09:06:05;98520.59;;;30.56;29.90
49825;BME280;35714;55.708;37.478;2023-07-30T09:08:31;98524.16;;;29.98;29.90
49825;BME280;35714;55.708;37.478;2023-07-30T09:11:08;98525.38;;;29.18;31.64
49825;BME280;35714;55.708;37.478;2023-07-30T09:13:38;98525.59;;;29.02;32.26
49825;BME280;35714;55.708;37.478;2023-07-30T09:16:11;98521.66;;;29.44;31.95
49825;BME280;35714;55.708;37.478;2023-07-30T09:18:42;98520.31;;;29.68;31.79
49825;BME280;35714;55.708;37.478;2023-07-30T09:21:10;98532.13;;;29.96;31.57
49825;BME280;35714;55.708;37.478;2023-07-30T09:23:43;98533.75;;;29.97;31.66
49825;BME280;35714;55.708;37.478;2023-07-30T09:26:10;98538.28;;;29.71;31.37
49825;BME280;35714;55.708;37.478;2023-07-30T09:28:36;98532.44;;;29.83;31.54
49825;BME280;35714;55.708;37.478;2023-07-30T09:31:03;98531.00;;;30.63;30.89
49825;BME280;35714;55.708;37.478;2023-07-30T09:33:29;98532.97;;;31.76;29.36
49825;BME280;35714;55.708;37.478;2023-07-30T09:35:54;98532.81;;;32.84;28.43
49825;BME280;35714;55.708;37.478;2023-07-30T09:38:21;98528.22;;;33.26;27.42
49825;BME280;35714;55.708;37.478;2023-07-30T09:40:46;98535.09;;;33.18;27.69
49825;BME280;35714;55.708;37.478;2023-07-30T09:43:15;98529.59;;;32.89;27.16
49825;BME280;35714;55.708;37.478;2023-07-30T09:45:44;98531.16;;;32.97;27.82
49825;BME280;35714;55.708;37.478;2023-07-30T09:48:13;98534.47;;;33.55;26.79
49825;BME280;35714;55.708;37.478;2023-07-30T09:50:40;98533.09;;;34.30;25.53
49825;BME280;35714;55.708;37.478;2023-07-30T09:53:07;98540.72;;;34.30;26.00
49825;BME280;35714;55.708;37.478;2023-07-30T09:55:34;98543.63;;;33.74;25.92
49825;BME280;35714;55.708;37.478;2023-07-30T09:57:59;98542.94;;;33.48;26.59
49825;BME280;35714;55.708;37.478;2023-07-30T10:00:26;98545.06;;;33.93;25.05
49825;BME280;35714;55.708;37.478;2023-07-30T10:02:52;98547.66;;;34.60;24.65
49825;BME280;35714;55.708;37.478;2023-07-30T10:05:24;98546.22;;;35.44;23.32
49825;BME280;35714;55.708;37.478;2023-07-30T10:07:59;98535.13;;;36.08;22.18
49825;BME280;35714;55.708;37.478;2023-07-30T10:10:27;98542.88;;;35.80;22.87
49825;BME280;35714;55.708;37.478;2023-07-30T10:12:55;98545.09;;;34.76;23.25
49825;BME280;35714;55.708;37.478;2023-07-30T10:15:24;98539.63;;;33.64;24.70
49825;BME280;35714;55.708;37.478;2023-07-30T10:17:51;98537.50;;;33.19;25.58
49825;BME280;35714;55.708;37.478;2023-07-30T10:20:20;98548.41;;;33.73;24.17
49825;BME280;35714;55.708;37.478;2023-07-30T10:22:51;98545.13;;;34.69;23.34
49825;BME280;35714;55.708;37.478;2023-07-30T10:25:20;98545.28;;;35.82;22.87
49825;BME280;35714;55.708;37.478;2023-07-30T10:27:50;98533.78;;;36.83;21.97
49825;BME280;35714;55.708;37.478;2023-07-30T10:30:20;98547.03;;;37.43;21.11
49825;BME280;35714;55.708;37.478;2023-07-30T10:40:40;98547.25;;;36.76;20.43
49825;BME280;35714;55.708;37.478;2023-07-30T10:43:16;98546.66;;;35.42;21.44
49825;BME280;35714;55.708;37.478;2023-07-30T10:45:51;98552.78;;;33.82;22.56
49825;BME280;35714;55.708;37.478;2023-07-30T10:48:17;98551.78;;;33.47;23.86
49825;BME280;35714;55.708;37.478;2023-07-30T10:50:43;98538.31;;;34.28;24.32
49825;BME280;35714;55.708;37.478;2023-07-30T10:53:14;98554.56;;;35.51;22.22
49825;BME280;35714;55.708;37.478;2023-07-30T10:55:44;98554.97;;;36.04;20.88
49825;BME280;35714;55.708;37.478;2023-07-30T10:58:10;98550.50;;;36.30;20.89
49825;BME280;35714;55.708;37.478;2023-07-30T11:00:37;98545.19;;;36.56;20.31
49825;BME280;35714;55.708;37.478;2023-07-30T11:03:03;98547.19;;;36.99;20.68
49825;BME280;35714;55.708;37.478;2023-07-30T11:05:28;98546.47;;;37.68;19.28
49825;BME280;35714;55.708;37.478;2023-07-30T11:07:55;98552.38;;;38.40;18.90
49825;BME280;35714;55.708;37.478;2023-07-30T11:10:22;98552.94;;;38.64;18.66
49825;BME280;35714;55.708;37.478;2023-07-30T11:12:49;98539.22;;;38.92;18.48
49825;BME280;35714;55.708;37.478;2023-07-30T11:15:17;98538.38;;;39.21;17.39
49825;BME280;35714;55.708;37.478;2023-07-30T11:17:43;98548.09;;;38.65;16.68
49825;BME280;35714;55.708;37.478;2023-07-30T11:20:26;98547.72;;;37.84;16.91
49825;BME280;35714;55.708;37.478;2023-07-30T11:22:55;98551.56;;;36.60;18.64
49825;BME280;35714;55.708;37.478;2023-07-30T11:25:21;98545.88;;;36.40;19.50
49825;BME280;35714;55.708;37.478;2023-07-30T11:27:48;98546.44;;;36.55;19.87
49825;BME280;35714;55.708;37.478;2023-07-30T11:30:14;98533.53;;;36.94;19.17
49825;BME280;35714;55.708;37.478;2023-07-30T11:32:41;98542.41;;;36.76;19.00
49825;BME280;35714;55.708;37.478;2023-07-30T11:35:07;98541.66;;;36.05;20.75
49825;BME280;35714;55.708;37.478;2023-07-30T11:37:34;98549.25;;;36.31;20.66
49825;BME280;35714;55.708;37.478;2023-07-30T11:40:04;98553.31;;;37.34;20.08
49825;BME280;35714;55.708;37.478;2023-07-30T11:42:30;98553.53;;;38.42;19.04
49825;BME280;35714;55.708;37.478;2023-07-30T11:44:56;98542.38;;;38.94;15.66
49825;BME280;35714;55.708;37.478;2023-07-30T11:47:22;98543.09;;;38.98;17.21
49825;BME280;35714;55.708;37.478;2023-07-30T11:49:57;98543.25;;;39.33;17.11
49825;BME280;35714;55.708;37.478;2023-07-30T11:52:23;98552.47;;;39.88;16.70
49825;BME280;35714;55.708;37.478;2023-07-30T11:55:00;98558.34;;;39.94;16.67
49825;BME280;35714;55.708;37.478;2023-07-30T11:57:35;98560.88;;;40.05;16.07
49825;BME280;35714;55.708;37.478;2023-07-30T12:00:01;98556.69;;;39.84;16.44
49825;BME280;35714;55.708;37.478;2023-07-30T12:02:38;98552.03;;;40.03;15.77
49825;BME280;35714;55.708;37.478;2023-07-30T12:05:05;98565.19;;;39.97;15.49
49825;BME280;35714;55.708;37.478;2023-07-30T12:07:32;98560.75;;;40.09;16.33
49825;BME280;35714;55.708;37.478;2023-07-30T12:10:09;98564.06;;;40.77;16.39
49825;BME280;35714;55.708;37.478;2023-07-30T12:12:35;98549.81;;;41.21;15.61
49825;BME280;35714;55.708;37.478;2023-07-30T12:15:01;98545.28;;;41.64;14.93
49825;BME280;35714;55.708;37.478;2023-07-30T12:17:30;98547.13;;;41.99;14.78
49825;BME280;35714;55.708;37.478;2023-07-30T12:20:00;98556.50;;;42.09;14.71
49825;BME280;35714;55.708;37.478;2023-07-30T12:22:26;98556.22;;;42.16;14.39
49825;BME280;35714;55.708;37.478;2023-07-30T12:24:51;98550.22;;;42.23;14.07
49825;BME280;35714;55.708;37.478;2023-07-30T12:27:17;98551.16;;;42.20;12.91
49825;BME280;35714;55.708;37.478;2023-07-30T12:29:42;98558.00;;;41.73;13.60
49825;BME280;35714;55.708;37.478;2023-07-30T12:32:09;98551.63;;;41.69;14.00
49825;BME280;35714;55.708;37.478;2023-07-30T12:34:35;98562.44;;;41.83;13.65
49825;BME280;35714;55.708;37.478;2023-07-30T12:37:00;98559.81;;;41.26;12.89
49825;BME280;35714;55.708;37.478;2023-07-30T12:39:26;98555.59;;;40.64;14.38
49825;BME280;35714;55.708;37.478;2023-07-30T12:41:52;98550.56;;;40.90;14.30
49825;BME280;35714;55.708;37.478;2023-07-30T12:44:17;98557.06;;;41.13;14.67
49825;BME280;35714;55.708;37.478;2023-07-30T12:46:43;98535.13;;;40.91;14.14
49825;BME280;35714;55.708;37.478;2023-07-30T12:49:09;98555.81;;;40.92;14.19
49825;BME280;35714;55.708;37.478;2023-07-30T12:51:34;98556.69;;;40.67;14.39
49825;BME280;35714;55.708;37.478;2023-07-30T12:54:00;98558.16;;;39.88;14.93
49825;BME280;35714;55.708;37.478;2023-07-30T12:56:26;98564.53;;;39.67;16.38